Time;durP1;ratioP1;P1;durP2;ratioP2;P2;SDS_P1;SDS_P2;PMS_P1;PMS_P2;Temp;Humidity;BMP_temperature;BMP_pressure;BME280_temperature;BME280_humidity;BME280_pressure;Samples;Min_cycle;Max_cycle;Signal;HPM_P1;HPM_P2
2023/06/10 00:00:08;;;;;;;10.93;9.70;;;23.60;56.50;;;;;;5054583;28;20552;-56
2023/06/10 00:02:35;;;;;;;10.60;8.83;;;23.50;56.60;;;;;;5054718;28;20442;-56
2023/06/10 00:05:02;;;;;;;9.60;8.80;;;23.40;56.60;;;;;;5054323;28;20951;-56
2023/06/10 00:07:30;;;;;;;9.40;8.50;;;23.30;56.70;;;;;;5054493;28;20532;-56
2023/06/10 00:09:57;;;;;;;10.00;9.13;;;23.20;56.70;;;;;;5055832;28;20456;-56
2023/06/10 00:12:23;;;;;;;9.13;8.33;;;23.10;56.70;;;;;;5056055;28;20489;-56
2023/06/10 00:14:51;;;;;;;9.30;8.50;;;23.00;56.80;;;;;;5055824;28;20450;-56
2023/06/10 00:17:18;;;;;;;10.30;9.50;;;22.90;56.90;;;;;;5054293;28;20480;-56
2023/06/10 00:19:46;;;;;;;10.50;9.70;;;22.80;57.00;;;;;;5054271;28;20495;-56
2023/06/10 00:22:14;;;;;;;10.87;10.00;;;22.70;57.10;;;;;;5054343;28;20473;-56
2023/06/10 00:24:42;;;;;;;11.33;10.33;;;22.60;57.30;;;;;;5053938;28;20997;-56
2023/06/10 00:27:09;;;;;;;10.43;9.63;;;22.50;57.50;;;;;;5054229;28;20552;-56
2023/06/10 00:29:36;;;;;;;10.77;9.97;;;22.40;57.80;;;;;;5054139;28;20496;-56
2023/06/10 00:32:03;;;;;;;10.87;9.90;;;22.40;58.10;;;;;;5054116;28;20484;-56
2023/06/10 00:34:29;;;;;;;11.50;10.60;;;22.30;58.70;;;;;;5054103;28;20454;-56
2023/06/10 00:36:56;;;;;;;11.10;10.13;;;22.30;58.80;;;;;;5054002;28;20552;-56
2023/06/10 00:39:23;;;;;;;10.93;10.10;;;22.30;59.10;;;;;;5053925;28;20446;-56
2023/06/10 00:41:51;;;;;;;11.07;10.17;;;22.30;59.20;;;;;;5053048;28;20498;-56
2023/06/10 00:44:18;;;;;;;10.73;9.93;;;22.20;59.50;;;;;;5053935;28;20542;-56
2023/06/10 00:46:45;;;;;;;11.47;10.47;;;22.20;59.60;;;;;;5054256;28;20492;-56
2023/06/10 00:49:11;;;;;;;12.37;11.37;;;22.30;60.00;;;;;;5053763;28;20456;-56
2023/06/10 00:51:39;;;;;;;11.77;10.77;;;22.20;59.80;;;;;;5053396;28;20832;-56
2023/06/10 00:54:06;;;;;;;10.83;10.00;;;22.20;60.10;;;;;;5053398;28;21038;-56
2023/06/10 00:56:35;;;;;;;11.73;10.83;;;22.20;60.20;;;;;;5053429;28;20995;-56
2023/06/10 00:59:03;;;;;;;11.57;10.47;;;22.20;60.50;;;;;;5053214;28;20900;-56
2023/06/10 01:01:30;;;;;;;11.77;10.87;;;22.20;60.70;;;;;;5053867;28;20442;-56
2023/06/10 01:03:58;;;;;;;11.83;10.33;;;22.20;60.80;;;;;;5053564;28;20454;-56
2023/06/10 01:06:35;;;;;;;12.57;11.40;;;22.20;61.00;;;;;;5053173;28;21006;-56
2023/06/10 01:09:07;;;;;;;10.87;9.87;;;22.10;61.10;;;;;;5053648;28;20438;-56
2023/06/10 01:11:41;;;;;;;12.37;11.23;;;22.10;61.40;;;;;;5053244;28;20485;-56
2023/06/10 01:14:10;;;;;;;12.00;10.90;;;22.10;61.70;;;;;;5053529;28;20440;-56
2023/06/10 01:16:40;;;;;;;13.13;10.10;;;22.00;61.90;;;;;;5053282;28;20469;-56
2023/06/10 01:19:07;;;;;;;11.07;10.27;;;22.00;62.20;;;;;;5052968;28;20943;-56
2023/06/10 01:21:35;;;;;;;12.37;11.27;;;21.90;62.30;;;;;;5053364;28;20480;-56
2023/06/10 01:24:02;;;;;;;12.27;11.07;;;21.80;62.50;;;;;;5053912;28;20449;-56
2023/06/10 01:26:33;;;;;;;11.73;10.43;;;21.80;62.70;;;;;;5053468;28;20937;-56
2023/06/10 01:29:02;;;;;;;11.30;10.40;;;21.80;63.10;;;;;;5053450;28;20452;-56
2023/06/10 01:31:36;;;;;;;11.27;10.37;;;21.80;63.20;;;;;;5053444;28;20489;-56
2023/06/10 01:34:06;;;;;;;11.60;10.70;;;21.80;63.40;;;;;;5053617;28;20488;-55
2023/06/10 01:36:37;;;;;;;11.30;10.30;;;21.80;63.70;;;;;;5053491;28;20465;-56
2023/06/10 01:39:05;;;;;;;10.53;9.63;;;21.70;63.90;;;;;;5072666;28;20460;-56
2023/06/10 01:41:33;;;;;;;10.97;9.90;;;21.70;64.20;;;;;;5073328;28;20440;-56
2023/06/10 01:44:00;;;;;;;9.70;8.63;;;21.70;64.40;;;;;;5073385;28;20452;-57
2023/06/10 01:46:26;;;;;;;11.43;10.43;;;21.70;64.80;;;;;;5073109;28;20471;-56
2023/06/10 01:48:53;;;;;;;11.37;10.50;;;21.70;65.00;;;;;;5073210;28;20460;-56
2023/06/10 01:51:20;;;;;;;12.10;11.00;;;21.60;65.30;;;;;;5073008;28;20537;-56
2023/06/10 01:53:48;;;;;;;12.47;11.27;;;21.60;65.40;;;;;;5075108;28;20501;-56
2023/06/10 01:56:17;;;;;;;11.87;10.80;;;21.60;65.80;;;;;;5077102;28;20493;-56
2023/06/10 01:58:44;;;;;;;12.33;11.13;;;21.50;66.00;;;;;;5077095;28;20478;-57
2023/06/10 02:01:11;;;;;;;11.50;10.40;;;21.60;66.30;;;;;;5076715;28;20852;-57
2023/06/10 02:03:38;;;;;;;11.20;10.30;;;21.50;66.40;;;;;;5077335;28;20445;-57
2023/06/10 02:06:05;;;;;;;11.20;10.20;;;21.40;66.10;;;;;;5076585;28;20464;-57
2023/06/10 02:08:31;;;;;;;11.47;10.27;;;21.30;65.90;;;;;;5076923;28;20459;-57
2023/06/10 02:10:59;;;;;;;11.07;9.83;;;21.20;65.80;;;;;;5077188;28;20448;-57
2023/06/10 02:13:26;;;;;;;10.73;9.70;;;21.10;65.80;;;;;;5076839;28;20934;-57
2023/06/10 02:15:53;;;;;;;11.03;10.03;;;21.10;66.20;;;;;;5076397;28;20996;-57
2023/06/10 02:18:21;;;;;;;12.13;10.93;;;21.10;66.50;;;;;;5076693;28;20432;-57
2023/06/10 02:20:48;;;;;;;11.57;10.57;;;21.00;66.70;;;;;;5076761;28;20472;-57
2023/06/10 02:23:15;;;;;;;10.77;9.67;;;21.00;67.20;;;;;;5077396;28;20535;-57
2023/06/10 02:25:42;;;;;;;11.77;10.57;;;21.00;67.70;;;;;;5076540;28;20441;-57
2023/06/10 02:28:10;;;;;;;11.90;10.90;;;21.00;67.80;;;;;;5076610;28;20946;-57
2023/06/10 02:30:40;;;;;;;13.03;11.10;;;20.90;67.60;;;;;;5076480;28;20444;-57
2023/06/10 02:33:09;;;;;;;12.80;11.70;;;20.80;67.80;;;;;;5076640;28;20557;-57
2023/06/10 02:35:36;;;;;;;11.37;10.23;;;20.80;68.00;;;;;;5076319;28;20452;-57
2023/06/10 02:38:03;;;;;;;12.83;11.67;;;20.80;68.10;;;;;;5076150;28;20448;-57
2023/06/10 02:40:30;;;;;;;12.37;11.17;;;20.70;68.10;;;;;;5076138;28;20448;-57
2023/06/10 02:42:57;;;;;;;11.93;10.90;;;20.70;68.30;;;;;;5076218;28;20856;-57
2023/06/10 02:45:25;;;;;;;12.97;11.83;;;20.70;68.50;;;;;;5076146;28;20480;-57
2023/06/10 02:47:52;;;;;;;12.73;11.57;;;20.60;68.70;;;;;;5075749;28;20811;-57
2023/06/10 02:50:19;;;;;;;11.90;10.77;;;20.60;69.10;;;;;;5075993;28;20451;-57
2023/06/10 02:52:45;;;;;;;12.23;11.10;;;20.60;69.20;;;;;;5075970;28;20579;-57
2023/06/10 02:55:12;;;;;;;11.73;10.63;;;20.50;69.40;;;;;;5076030;28;20527;-57
2023/06/10 02:57:39;;;;;;;12.10;10.80;;;20.50;69.60;;;;;;5075880;28;20531;-57
2023/06/10 03:00:10;;;;;;;12.33;10.40;;;20.50;69.90;;;;;;5075625;28;20507;-57
2023/06/10 03:02:38;;;;;;;13.47;11.27;;;20.50;70.00;;;;;;5075972;28;20432;-57
2023/06/10 03:05:05;;;;;;;15.13;10.63;;;20.40;69.70;;;;;;5074660;28;20452;-57
2023/06/10 03:07:35;;;;;;;10.53;9.37;;;20.30;69.50;;;;;;5075755;28;20575;-57
2023/06/10 03:10:01;;;;;;;11.37;10.10;;;20.20;69.20;;;;;;5075720;28;20498;-57
2023/06/10 03:12:28;;;;;;;12.30;11.17;;;20.20;69.40;;;;;;5075378;28;20488;-57
2023/06/10 03:14:54;;;;;;;15.40;11.43;;;20.10;69.30;;;;;;5075327;28;20939;-57
2023/06/10 03:17:21;;;;;;;11.03;10.20;;;20.00;68.90;;;;;;5075560;28;20522;-57
2023/06/10 03:19:49;;;;;;;11.90;10.90;;;20.00;69.30;;;;;;5075141;28;20931;-57
2023/06/10 03:22:17;;;;;;;12.37;11.07;;;20.00;69.40;;;;;;5075597;28;20451;-57
2023/06/10 03:24:46;;;;;;;13.40;12.03;;;20.00;69.60;;;;;;5075453;28;20459;-57
2023/06/10 03:27:13;;;;;;;13.00;11.80;;;20.00;70.10;;;;;;5075078;28;20896;-57
2023/06/10 03:29:40;;;;;;;14.90;12.37;;;20.00;70.50;;;;;;5075388;28;20908;-57
2023/06/10 03:32:07;;;;;;;14.10;12.90;;;19.90;70.60;;;;;;5075296;28;20480;-57
2023/06/10 03:34:34;;;;;;;14.37;13.10;;;19.90;70.90;;;;;;5075059;28;20816;-57
2023/06/10 03:37:02;;;;;;;13.23;11.93;;;19.90;71.10;;;;;;5074912;28;20518;-57
2023/06/10 03:39:29;;;;;;;13.50;12.30;;;19.90;71.30;;;;;;5075265;28;20448;-57
2023/06/10 03:41:56;;;;;;;15.07;11.77;;;19.90;71.60;;;;;;5075169;28;20478;-57
2023/06/10 03:44:23;;;;;;;12.50;11.30;;;19.80;71.70;;;;;;5074790;28;20935;-57
2023/06/10 03:46:50;;;;;;;12.43;11.33;;;19.80;71.80;;;;;;5074918;28;20492;-57
2023/06/10 03:49:17;;;;;;;13.10;11.80;;;19.70;71.70;;;;;;5074897;28;20452;-57
2023/06/10 03:51:43;;;;;;;13.73;11.90;;;19.70;72.00;;;;;;5074614;28;20985;-57
2023/06/10 03:54:11;;;;;;;13.20;12.10;;;19.70;72.10;;;;;;5075180;28;20441;-57
2023/06/10 03:56:38;;;;;;;12.47;11.17;;;19.70;72.30;;;;;;5074469;28;20884;-57
2023/06/10 03:59:05;;;;;;;12.23;11.13;;;19.70;72.20;;;;;;5075105;28;20456;-57
2023/06/10 04:01:33;;;;;;;12.77;11.57;;;19.60;72.10;;;;;;5074794;28;20448;-57
2023/06/10 04:04:01;;;;;;;12.60;10.83;;;19.60;72.10;;;;;;5074727;28;20540;-57
2023/06/10 04:06:28;;;;;;;12.67;10.50;;;19.60;72.10;;;;;;5074571;28;20469;-57
2023/06/10 04:08:56;;;;;;;19.10;12.30;;;19.60;72.30;;;;;;5074529;28;20459;-57
2023/06/10 04:11:24;;;;;;;13.33;12.00;;;19.60;72.40;;;;;;5074357;28;20476;-57
2023/06/10 04:13:51;;;;;;;14.77;13.00;;;19.60;72.80;;;;;;5074443;28;20574;-57
2023/06/10 04:16:18;;;;;;;14.00;12.70;;;19.60;73.20;;;;;;5074244;28;20515;-57
2023/06/10 04:18:45;;;;;;;13.97;12.67;;;19.60;73.80;;;;;;5074443;28;20444;-57
2023/06/10 04:21:11;;;;;;;13.33;12.03;;;19.60;74.10;;;;;;5074402;28;20544;-57
2023/06/10 04:23:39;;;;;;;14.33;13.10;;;19.60;74.10;;;;;;5074335;28;20432;-57
2023/06/10 04:26:06;;;;;;;15.87;13.20;;;19.60;74.40;;;;;;5074291;28;20518;-57
2023/06/10 04:28:36;;;;;;;13.20;12.10;;;19.60;74.70;;;;;;5074173;28;20897;-57
2023/06/10 04:31:03;;;;;;;12.90;11.83;;;19.60;74.90;;;;;;5074178;28;20459;-57
2023/06/10 04:33:30;;;;;;;13.90;12.60;;;19.70;75.20;;;;;;5073968;28;21012;-57
2023/06/10 04:35:57;;;;;;;12.83;11.73;;;19.70;75.30;;;;;;5074280;28;20464;-56
2023/06/10 04:38:24;;;;;;;14.30;12.97;;;19.60;75.40;;;;;;5059511;28;20468;-56
2023/06/10 04:40:51;;;;;;;15.33;13.87;;;19.70;75.80;;;;;;5054721;28;20460;-56
2023/06/10 04:43:18;;;;;;;14.40;12.90;;;19.70;76.20;;;;;;5054646;28;20450;-57
2023/06/10 04:45:46;;;;;;;14.10;12.90;;;19.70;76.50;;;;;;5054026;28;20457;-57
2023/06/10 04:48:13;;;;;;;14.70;13.60;;;19.80;76.70;;;;;;5054106;28;20454;-57
2023/06/10 04:50:40;;;;;;;14.50;13.40;;;19.80;76.60;;;;;;5054394;28;20454;-57
2023/06/10 04:53:07;;;;;;;14.47;13.40;;;19.90;77.00;;;;;;5053737;28;20481;-57
2023/06/10 04:55:34;;;;;;;15.00;13.70;;;19.90;77.10;;;;;;5053699;28;20461;-57
2023/06/10 04:58:00;;;;;;;15.40;14.00;;;20.00;77.10;;;;;;5053775;28;20449;-57
2023/06/10 05:00:27;;;;;;;13.57;12.43;;;20.00;77.00;;;;;;5053663;28;20496;-57
2023/06/10 05:02:55;;;;;;;13.80;12.40;;;20.10;77.30;;;;;;5053698;28;20453;-57
2023/06/10 05:05:22;;;;;;;13.60;12.30;;;20.20;77.60;;;;;;5053694;28;20544;-57
2023/06/10 05:07:49;;;;;;;13.67;12.27;;;20.30;77.80;;;;;;5053473;28;20469;-57
2023/06/10 05:10:16;;;;;;;14.10;12.97;;;20.30;77.90;;;;;;5053212;28;20481;-57
2023/06/10 05:12:42;;;;;;;14.20;12.80;;;20.40;78.10;;;;;;5053191;28;20488;-57
2023/06/10 05:15:10;;;;;;;14.10;12.90;;;20.50;78.20;;;;;;5053369;28;20450;-57
2023/06/10 05:17:37;;;;;;;14.23;12.93;;;20.50;78.20;;;;;;5053376;28;20473;-57
2023/06/10 05:20:06;;;;;;;14.27;12.97;;;20.60;78.30;;;;;;5053390;28;20453;-57
2023/06/10 05:22:32;;;;;;;13.23;12.03;;;20.60;78.40;;;;;;5053408;28;20445;-57
2023/06/10 05:24:59;;;;;;;15.10;13.53;;;20.70;78.70;;;;;;5053406;28;20947;-57
2023/06/10 05:27:26;;;;;;;15.37;13.80;;;20.80;78.60;;;;;;5052722;28;20470;-57
2023/06/10 05:29:53;;;;;;;14.37;13.17;;;20.80;78.60;;;;;;5053169;28;20449;-57
2023/06/10 05:32:19;;;;;;;13.43;12.43;;;20.90;79.10;;;;;;5053183;28;20453;-57
2023/06/10 05:34:46;;;;;;;12.20;11.17;;;21.00;79.20;;;;;;5053386;28;20445;-57
2023/06/10 05:37:14;;;;;;;14.03;12.93;;;21.10;79.50;;;;;;5052822;28;20872;-57
2023/06/10 05:39:41;;;;;;;12.80;11.70;;;21.20;79.50;;;;;;5053212;28;20454;-57
2023/06/10 05:42:09;;;;;;;13.67;12.47;;;21.20;79.50;;;;;;5053369;28;20507;-57
2023/06/10 05:44:36;;;;;;;15.07;13.67;;;21.30;79.30;;;;;;5053064;28;20518;-57
2023/06/10 05:47:02;;;;;;;15.03;13.63;;;21.40;79.10;;;;;;5053080;28;20511;-57
2023/06/10 05:49:29;;;;;;;13.93;12.80;;;21.50;79.00;;;;;;5052748;28;20954;-57
2023/06/10 05:51:58;;;;;;;14.30;13.00;;;21.60;78.50;;;;;;5053155;28;20449;-57
2023/06/10 05:54:26;;;;;;;13.77;11.43;;;21.70;78.20;;;;;;5053174;28;20488;-57
2023/06/10 05:56:53;;;;;;;11.53;10.53;;;21.80;77.60;;;;;;5052629;28;20815;-57
2023/06/10 05:59:19;;;;;;;11.63;10.53;;;21.90;77.20;;;;;;5052965;28;20454;-57
2023/06/10 06:01:46;;;;;;;13.00;11.90;;;22.00;76.80;;;;;;5053008;28;20452;-57
2023/06/10 06:04:12;;;;;;;12.73;11.73;;;22.10;77.00;;;;;;5053245;28;20442;-57
2023/06/10 06:06:40;;;;;;;12.80;11.80;;;22.20;76.70;;;;;;5052756;28;20469;-57
2023/06/10 06:09:07;;;;;;;13.73;12.63;;;22.30;76.50;;;;;;5052951;28;20528;-57
2023/06/10 06:11:36;;;;;;;14.50;13.10;;;22.40;75.60;;;;;;5052824;28;20464;-57
2023/06/10 06:14:02;;;;;;;11.53;10.40;;;22.50;75.00;;;;;;5052685;28;20581;-57
2023/06/10 06:16:29;;;;;;;12.10;11.10;;;22.70;74.70;;;;;;5052764;28;20475;-57
2023/06/10 06:18:56;;;;;;;13.17;11.97;;;22.80;74.30;;;;;;5052831;28;20554;-57
2023/06/10 06:21:22;;;;;;;14.13;13.00;;;22.90;74.60;;;;;;5052705;28;20446;-57
2023/06/10 06:23:49;;;;;;;13.20;12.10;;;23.00;74.10;;;;;;5053093;28;20449;-57
2023/06/10 06:26:16;;;;;;;13.33;12.13;;;23.10;73.60;;;;;;5052697;28;20465;-57
2023/06/10 06:28:44;;;;;;;11.13;10.20;;;23.30;73.20;;;;;;5052629;28;20460;-57
2023/06/10 06:31:11;;;;;;;11.10;10.10;;;23.40;72.30;;;;;;5052721;28;20456;-57
2023/06/10 06:33:37;;;;;;;10.20;9.20;;;23.50;71.40;;;;;;5053062;28;20527;-57
2023/06/10 06:36:04;;;;;;;9.30;8.50;;;23.60;70.60;;;;;;5052323;28;21005;-57
2023/06/10 06:38:31;;;;;;;9.60;8.80;;;23.80;69.50;;;;;;5052547;28;20452;-57
2023/06/10 06:41:02;;;;;;;10.20;9.50;;;24.00;68.30;;;;;;5056262;28;20852;-57
2023/06/10 06:43:29;;;;;;;9.33;8.27;;;24.10;67.80;;;;;;5056272;28;20488;-57
2023/06/10 06:45:57;;;;;;;10.27;9.37;;;24.30;67.10;;;;;;5055977;28;20477;-58
2023/06/10 06:48:24;;;;;;;9.27;8.60;;;24.50;66.50;;;;;;5056188;28;20792;-58
2023/06/10 06:50:51;;;;;;;10.60;9.27;;;24.60;65.70;;;;;;5055890;28;20449;-58
2023/06/10 06:53:17;;;;;;;11.70;10.60;;;24.80;65.10;;;;;;5055958;28;20499;-58
2023/06/10 06:55:44;;;;;;;10.73;9.53;;;25.00;65.10;;;;;;5055993;28;20449;-57
2023/06/10 06:58:11;;;;;;;10.87;9.60;;;25.10;65.00;;;;;;5056032;28;20449;-58
2023/06/10 07:00:37;;;;;;;9.87;8.70;;;25.30;63.90;;;;;;5055882;28;20881;-57
2023/06/10 07:03:05;;;;;;;9.00;8.30;;;25.50;62.60;;;;;;5055897;28;20454;-58
2023/06/10 07:05:32;;;;;;;9.57;8.77;;;25.70;61.60;;;;;;5055769;28;20811;-57
2023/06/10 07:07:59;;;;;;;9.20;8.50;;;25.90;60.60;;;;;;5055757;28;20456;-58
2023/06/10 07:10:26;;;;;;;10.10;8.70;;;26.00;59.70;;;;;;5055893;28;20446;-58
2023/06/10 07:12:53;;;;;;;8.03;7.43;;;26.20;59.80;;;;;;5055234;28;20469;-58
2023/06/10 07:15:20;;;;;;;9.27;8.37;;;26.40;59.20;;;;;;5055925;28;20445;-58
2023/06/10 07:17:46;;;;;;;9.30;8.60;;;26.60;58.50;;;;;;5055341;28;21019;-58
2023/06/10 07:20:15;;;;;;;9.97;8.97;;;26.80;58.50;;;;;;5055430;28;20457;-57
2023/06/10 07:22:42;;;;;;;9.67;8.77;;;27.00;58.00;;;;;;5055466;28;20485;-57
2023/06/10 07:25:09;;;;;;;9.27;8.57;;;27.20;58.10;;;;;;5055550;28;20449;-58
2023/06/10 07:27:36;;;;;;;7.83;7.13;;;27.40;57.80;;;;;;5055322;28;20469;-58
2023/06/10 07:30:04;;;;;;;8.70;8.00;;;27.60;56.80;;;;;;5055316;28;20450;-58
2023/06/10 07:32:31;;;;;;;7.90;7.00;;;27.80;56.30;;;;;;5055319;28;20487;-58
2023/06/10 07:34:57;;;;;;;8.00;7.40;;;28.00;56.60;;;;;;5054945;28;21007;-58
2023/06/10 07:37:25;;;;;;;8.43;7.60;;;28.20;55.10;;;;;;5055026;28;20485;-56
2023/06/10 07:39:52;;;;;;;7.87;7.20;;;28.40;53.80;;;;;;5056101;28;20899;-55
2023/06/10 07:42:19;;;;;;;8.40;7.60;;;28.60;52.50;;;;;;5055520;28;20446;-55
2023/06/10 07:44:46;;;;;;;7.17;6.47;;;28.80;51.40;;;;;;5055491;28;20449;-56
2023/06/10 07:47:12;;;;;;;7.33;6.73;;;28.90;50.00;;;;;;5054960;28;21006;-56
2023/06/10 07:49:39;;;;;;;7.53;7.00;;;29.10;48.70;;;;;;5055000;28;20454;-56
2023/06/10 07:52:07;;;;;;;7.73;7.03;;;29.30;47.60;;;;;;5054642;28;20461;-56
2023/06/10 07:54:35;;;;;;;8.10;7.03;;;29.50;46.80;;;;;;5055040;28;20482;-56
2023/06/10 07:57:02;;;;;;;6.80;6.30;;;29.60;46.30;;;;;;5054823;28;20481;-56
2023/06/10 07:59:29;;;;;;;7.67;7.07;;;29.80;45.60;;;;;;5054653;28;20788;-56
2023/06/10 08:01:55;;;;;;;6.83;6.43;;;30.00;45.30;;;;;;5054763;28;20878;-56
2023/06/10 08:04:22;;;;;;;7.30;6.60;;;30.20;44.10;;;;;;5054879;28;20449;-56
2023/06/10 08:06:49;;;;;;;7.33;6.70;;;30.40;43.30;;;;;;5054678;28;20472;-55
2023/06/10 08:09:15;;;;;;;13.13;7.40;;;30.50;42.70;;;;;;5054702;28;20457;-56
2023/06/10 08:11:43;;;;;;;7.50;6.90;;;30.70;42.50;;;;;;5054679;28;20951;-56
2023/06/10 08:14:10;;;;;;;9.40;7.80;;;30.80;42.00;;;;;;5054554;28;20488;-57
2023/06/10 08:16:37;;;;;;;7.80;7.30;;;31.10;42.30;;;;;;5054554;28;20469;-56
2023/06/10 08:19:03;;;;;;;8.73;7.70;;;31.20;42.20;;;;;;5054648;28;20449;-56
2023/06/10 08:21:31;;;;;;;8.27;7.30;;;31.40;41.20;;;;;;5054801;28;20485;-56
2023/06/10 08:23:57;;;;;;;9.80;6.83;;;31.50;40.50;;;;;;5054458;28;20445;-56
2023/06/10 08:26:25;;;;;;;7.80;7.10;;;31.70;40.00;;;;;;5053972;28;21096;-56
2023/06/10 08:28:54;;;;;;;8.13;7.53;;;31.90;39.10;;;;;;5054382;28;20951;-56
2023/06/10 08:31:21;;;;;;;8.10;7.50;;;32.00;38.80;;;;;;5054361;28;20548;-56
2023/06/10 08:33:47;;;;;;;7.20;6.80;;;32.30;38.60;;;;;;5054131;28;20507;-56
2023/06/10 08:36:14;;;;;;;8.57;7.87;;;32.50;37.90;;;;;;5054226;28;20465;-56
2023/06/10 08:38:41;;;;;;;7.77;7.27;;;32.70;37.60;;;;;;5054100;28;20444;-56
2023/06/10 08:41:09;;;;;;;8.70;7.90;;;32.80;37.30;;;;;;5053918;28;20974;-56
2023/06/10 08:43:42;;;;;;;8.30;7.60;;;33.00;37.20;;;;;;5053731;28;20816;-56
2023/06/10 08:46:12;;;;;;;9.20;8.40;;;33.20;36.40;;;;;;5053986;28;20464;-56
2023/06/10 08:48:43;;;;;;;8.40;7.70;;;33.40;36.40;;;;;;5054873;28;20444;-57
2023/06/10 08:51:11;;;;;;;8.83;7.90;;;33.50;36.80;;;;;;5055742;28;20484;-57
2023/06/10 08:53:43;;;;;;;9.57;8.77;;;33.70;36.80;;;;;;5054327;28;20484;-57
2023/06/10 08:56:10;;;;;;;7.90;7.40;;;33.80;36.30;;;;;;5053741;28;20483;-56
2023/06/10 08:58:41;;;;;;;8.07;7.30;;;33.90;35.70;;;;;;5053571;28;20453;-56
2023/06/10 09:01:10;;;;;;;8.70;8.10;;;34.10;36.40;;;;;;5053511;28;20895;-56
2023/06/10 09:03:38;;;;;;;9.00;8.30;;;34.20;36.30;;;;;;5052944;28;20449;-56
2023/06/10 09:06:06;;;;;;;7.90;7.23;;;34.40;35.40;;;;;;5053572;28;20469;-56
2023/06/10 09:08:35;;;;;;;8.40;7.47;;;34.50;34.90;;;;;;5053642;28;20449;-57
2023/06/10 09:11:02;;;;;;;9.30;8.50;;;34.70;35.00;;;;;;5053859;28;20532;-56
2023/06/10 09:13:28;;;;;;;9.00;8.30;;;34.80;34.60;;;;;;5053652;28;20425;-56
2023/06/10 09:16:00;;;;;;;9.30;8.70;;;35.00;34.30;;;;;;5052918;28;20974;-57
2023/06/10 09:18:28;;;;;;;9.00;8.30;;;35.20;34.90;;;;;;5053475;28;20433;-57
2023/06/10 09:20:55;;;;;;;8.57;7.97;;;35.30;34.40;;;;;;5053424;28;20801;-56
2023/06/10 09:23:22;;;;;;;8.73;8.13;;;35.50;33.30;;;;;;5053381;28;20449;-57
2023/06/10 09:25:57;;;;;;;8.50;7.83;;;35.60;32.80;;;;;;5053298;28;20449;-57
2023/06/10 09:28:24;;;;;;;8.43;7.73;;;35.80;32.60;;;;;;5053057;28;20523;-57
2023/06/10 09:30:52;;;;;;;9.33;8.47;;;36.00;33.40;;;;;;5053265;28;20614;-57
2023/06/10 09:33:19;;;;;;;9.07;8.27;;;36.10;33.00;;;;;;5053800;28;20213;-57
2023/06/10 09:35:50;;;;;;;9.17;8.37;;;36.30;32.20;;;;;;5052831;28;20742;-57
2023/06/10 09:38:21;;;;;;;10.20;8.10;;;36.50;31.80;;;;;;5052947;28;20187;-57
2023/06/10 09:40:52;;;;;;;8.60;7.90;;;36.70;31.70;;;;;;5053329;28;20214;-57
2023/06/10 09:43:19;;;;;;;8.20;7.50;;;36.90;30.70;;;;;;5053237;28;20206;-56
2023/06/10 09:45:49;;;;;;;11.60;7.78;;;36.90;30.70;;;;;;5054028;28;20252;-56
2023/06/10 09:48:16;;;;;;;8.77;8.15;;;37.10;30.40;;;;;;5053108;28;20209;-56
2023/06/10 09:50:44;;;;;;;8.63;7.93;;;37.30;30.60;;;;;;5053145;28;20285;-56
2023/06/10 09:53:12;;;;;;;8.27;7.63;;;37.40;30.70;;;;;;5053340;28;20240;-56
2023/06/10 09:55:39;;;;;;;8.63;8.00;;;37.60;30.30;;;;;;5052953;28;20218;-56
2023/06/10 09:58:06;;;;;;;8.65;8.05;;;37.80;29.90;;;;;;5052751;28;20209;-56
2023/06/10 10:00:33;;;;;;;8.27;7.68;;;38.10;29.70;;;;;;5052984;28;20202;-56
2023/06/10 10:03:00;;;;;;;9.50;8.68;;;38.30;29.40;;;;;;5053828;28;20253;-56
2023/06/10 10:05:29;;;;;;;8.85;8.05;;;38.60;29.40;;;;;;5053020;28;20613;-56
2023/06/10 10:07:57;;;;;;;9.30;8.30;;;38.80;28.40;;;;;;5052849;28;20225;-56
2023/06/10 10:10:25;;;;;;;8.88;8.18;;;39.10;28.40;;;;;;5052871;28;20241;-57
2023/06/10 10:12:55;;;;;;;9.10;7.93;;;39.40;28.30;;;;;;5052603;28;20214;-57
2023/06/10 10:15:24;;;;;;;9.00;8.38;;;39.70;27.90;;;;;;5055665;28;20207;-57
2023/06/10 10:17:56;;;;;;;8.95;7.40;;;40.00;27.60;;;;;;5056683;28;20218;-57
2023/06/10 10:20:27;;;;;;;8.07;7.47;;;40.20;27.40;;;;;;5056652;28;20603;-57
2023/06/10 10:22:57;;;;;;;7.95;7.30;;;40.60;27.30;;;;;;5056485;28;20645;-57
2023/06/10 10:25:29;;;;;;;7.97;7.47;;;40.90;26.00;;;;;;5056724;28;20202;-57
2023/06/10 10:27:59;;;;;;;8.50;7.45;;;41.30;25.20;;;;;;5056488;28;20230;-57
2023/06/10 10:30:28;;;;;;;10.65;8.27;;;41.70;25.00;;;;;;5056673;28;20193;-57
2023/06/10 10:32:59;;;;;;;12.75;8.50;;;42.10;24.80;;;;;;5056552;28;20199;-57
2023/06/10 10:35:26;;;;;;;7.40;6.80;;;42.40;24.60;;;;;;5056318;28;20714;-57
2023/06/10 10:37:54;;;;;;;10.88;8.23;;;42.80;23.80;;;;;;5056225;28;20276;-57
2023/06/10 10:40:22;;;;;;;9.18;7.00;;;43.10;23.40;;;;;;5056074;28;20694;-57
2023/06/10 10:42:51;;;;;;;7.70;7.00;;;43.40;23.10;;;;;;5056385;28;20199;-57
2023/06/10 10:45:19;;;;;;;7.82;7.18;;;43.80;23.10;;;;;;5057243;28;20203;-56
2023/06/10 10:47:47;;;;;;;8.68;7.22;;;44.20;22.70;;;;;;5057580;28;20222;-57
2023/06/10 10:50:15;;;;;;;7.72;7.13;;;44.60;22.40;;;;;;5056837;28;20284;-57
2023/06/10 10:52:57;;;;;;;7.57;6.90;;;44.90;20.90;;;;;;5056705;28;20588;-57
2023/06/10 10:55:24;;;;;;;8.23;7.47;;;45.30;20.60;;;;;;5054416;28;20226;-56
2023/06/10 10:58:00;;;;;;;10.20;7.40;;;45.60;19.80;;;;;;5055930;28;20219;-57
2023/06/10 11:00:31;;;;;;;7.25;6.55;;;46.00;20.00;;;;;;5056268;28;20202;-57
2023/06/10 11:03:07;;;;;;;7.30;6.60;;;46.40;20.20;;;;;;5056117;28;20198;-57
2023/06/10 11:05:39;;;;;;;16.10;6.88;;;46.60;19.80;;;;;;5055981;28;20186;-57
2023/06/10 11:08:07;;;;;;;7.70;7.00;;;46.90;19.70;;;;;;5056091;28;20191;-57
2023/06/10 11:10:35;;;;;;;6.90;6.30;;;47.20;19.80;;;;;;5055521;28;20260;-57
2023/06/10 11:13:07;;;;;;;6.80;6.20;;;47.40;19.20;;;;;;5055463;28;20218;-57
2023/06/10 11:15:39;;;;;;;7.15;6.55;;;47.60;18.10;;;;;;5055249;28;20649;-57
2023/06/10 11:18:14;;;;;;;9.65;5.97;;;47.90;18.40;;;;;;5055789;28;20214;-58
2023/06/10 11:20:56;;;;;;;6.55;5.93;;;48.10;18.40;;;;;;5055558;28;20202;-57
2023/06/10 11:23:43;;;;;;;8.90;6.68;;;48.40;17.60;;;;;;5055539;28;20206;-57
2023/06/10 11:26:37;;;;;;;7.70;6.72;;;48.50;17.30;;;;;;5054524;28;20226;-57
2023/06/10 11:29:10;;;;;;;7.25;6.75;;;48.70;17.10;;;;;;5054118;28;20697;-57
2023/06/10 11:31:55;;;;;;;8.10;7.30;;;48.10;16.60;;;;;;5055615;28;20190;-57
2023/06/10 11:34:26;;;;;;;8.35;6.85;;;47.00;17.80;;;;;;5055382;28;20256;-57
2023/06/10 11:36:54;;;;;;;8.20;6.68;;;45.80;18.70;;;;;;5055005;28;20254;-57
2023/06/10 11:39:26;;;;;;;7.72;6.82;;;44.60;19.80;;;;;;5055315;28;20229;-57
2023/06/10 11:41:52;;;;;;;7.75;6.78;;;43.60;21.10;;;;;;5055183;28;20206;-57
2023/06/10 11:44:21;;;;;;;8.23;7.18;;;42.50;21.80;;;;;;5055161;28;20206;-57
2023/06/10 11:46:49;;;;;;;8.07;7.57;;;41.50;22.30;;;;;;5054553;28;20228;-57
2023/06/10 11:49:16;;;;;;;9.20;7.95;;;40.60;23.00;;;;;;5055009;28;20203;-56
2023/06/10 11:51:48;;;;;;;7.68;7.13;;;39.90;24.00;;;;;;5055092;28;20614;-56
2023/06/10 11:54:15;;;;;;;8.95;8.25;;;39.20;25.10;;;;;;5054917;28;20193;-56
2023/06/10 11:56:42;;;;;;;8.60;7.80;;;38.70;25.80;;;;;;5054614;28;20269;-56
2023/06/10 11:59:09;;;;;;;8.13;7.53;;;38.20;26.10;;;;;;5054530;28;20598;-58
2023/06/10 12:01:39;;;;;;;8.75;8.07;;;37.80;27.10;;;;;;5054836;28;20556;-56
2023/06/10 12:04:08;;;;;;;9.18;7.70;;;37.60;27.30;;;;;;5054812;28;20212;-56
2023/06/10 12:06:43;;;;;;;8.73;7.93;;;37.60;27.20;;;;;;5054694;28;20222;-56
2023/06/10 12:09:15;;;;;;;8.40;7.80;;;38.30;27.50;;;;;;5054695;28;20210;-57
2023/06/10 12:11:43;;;;;;;9.98;8.18;;;39.30;26.60;;;;;;5054421;28;20684;-56
2023/06/10 12:14:09;;;;;;;7.97;7.38;;;39.70;25.40;;;;;;5054679;28;20246;-57
2023/06/10 12:16:37;;;;;;;8.43;7.63;;;39.80;24.30;;;;;;5054129;28;20616;-56
2023/06/10 12:19:06;;;;;;;7.82;7.32;;;39.70;24.80;;;;;;5054554;28;20206;-56
2023/06/10 12:21:34;;;;;;;7.95;7.35;;;39.60;25.20;;;;;;5054448;28;20203;-56
2023/06/10 12:24:02;;;;;;;9.05;8.32;;;39.40;25.20;;;;;;5054706;28;20205;-57
2023/06/10 12:26:39;;;;;;;9.52;8.68;;;39.40;25.40;;;;;;5054296;28;20230;-56
2023/06/10 12:29:24;;;;;;;8.32;7.53;;;39.30;25.60;;;;;;5054275;28;20214;-56
2023/06/10 12:32:00;;;;;;;9.02;8.43;;;39.30;26.30;;;;;;5055096;28;20276;-56
2023/06/10 12:34:31;;;;;;;7.93;7.43;;;40.00;26.40;;;;;;5054073;28;20237;-56
2023/06/10 12:36:58;;;;;;;7.15;6.45;;;41.30;24.40;;;;;;5054164;28;20227;-56
2023/06/10 12:39:24;;;;;;;7.35;6.78;;;42.80;22.00;;;;;;5054109;28;20207;-56